Windlesham, United Kingdom
Current Conditions -  °F | °C
As of 2:20 PM on Friday 28 Nov 2014 (Local Time) from EGLF Reporting Station
Scattered Clouds Scattered Clouds  
Wind Chill: 52°   Ceiling: Unl
Heat Index: 52°   Visibility: 4mi
Dew Point: 48°   Wind: 12mph
Humidity: 88%   Direction: 70°ENE
Pressure: 29.59"   Gusts: NA
Location:  51.37°N, 0.65°W
Report Text: EGLF 281420Z 07010KT 7000 SCT010 11/09 Q1002
Loading
Personal Weather Stations






























Interactive Weather Map New forecast layout! Learn more

10-Day Weather Forecast

Advertisements
Track Severe Weather on mobile